createdAt,value
2022-09-23T00:01:21.030Z,17.84
2022-09-23T00:03:49.268Z,17.79
2022-09-23T00:06:20.615Z,17.74
2022-09-23T00:08:50.573Z,17.76
2022-09-23T00:11:21.032Z,17.78
2022-09-23T00:13:53.364Z,17.79
2022-09-23T00:16:24.377Z,17.77
2022-09-23T00:18:52.082Z,17.73
2022-09-23T00:21:22.029Z,17.65
2022-09-23T00:23:49.589Z,17.55
2022-09-23T00:26:20.469Z,17.46
2022-09-23T00:28:48.377Z,17.37
2022-09-23T00:31:20.201Z,17.32
2022-09-23T00:33:47.830Z,17.32
2022-09-23T00:36:16.374Z,17.29
2022-09-23T00:38:45.232Z,17.27
2022-09-23T00:41:16.069Z,17.29
2022-09-23T00:43:47.605Z,17.25
2022-09-23T00:46:22.360Z,17.16
2022-09-23T00:48:58.212Z,17.10
2022-09-23T00:51:32.359Z,17.07
2022-09-23T00:54:01.270Z,17.02
2022-09-23T00:56:32.148Z,16.96
2022-09-23T00:59:01.191Z,16.94
2022-09-23T01:01:29.939Z,16.92
2022-09-23T01:03:58.288Z,16.91
2022-09-23T01:06:25.993Z,16.84
2022-09-23T01:08:53.567Z,16.73
2022-09-23T01:11:40.158Z,16.66
2022-09-23T01:14:37.502Z,16.66
2022-09-23T01:17:15.973Z,16.72
2022-09-23T01:20:15.131Z,16.68
2022-09-23T01:22:54.042Z,16.68
2022-09-23T01:26:01.646Z,16.56
2022-09-23T01:29:02.487Z,16.47
2022-09-23T01:31:43.187Z,16.43
2022-09-23T01:34:16.323Z,16.41
2022-09-23T01:36:51.374Z,16.35
2022-09-23T01:39:35.249Z,16.26
2022-09-23T01:42:16.947Z,16.15
2022-09-23T01:44:51.464Z,16.09
2022-09-23T01:47:27.123Z,16.04
2022-09-23T01:50:02.489Z,16.00
2022-09-23T01:52:40.136Z,15.94
2022-09-23T01:55:15.879Z,15.91
2022-09-23T01:57:49.933Z,15.85
2022-09-23T02:00:20.278Z,15.82
2022-09-23T02:02:57.690Z,15.77
2022-09-23T02:05:30.248Z,15.75
2022-09-23T02:08:03.185Z,15.69
2022-09-23T02:10:42.094Z,15.62
2022-09-23T02:13:18.013Z,15.58
2022-09-23T02:15:53.643Z,15.54
2022-09-23T02:18:26.548Z,15.50
2022-09-23T02:21:01.265Z,15.46
2022-09-23T02:23:35.988Z,15.48
2022-09-23T02:26:12.097Z,15.52
2022-09-23T02:28:52.428Z,15.50
2022-09-23T02:31:31.216Z,15.48
2022-09-23T02:34:15.039Z,15.47
2022-09-23T02:36:52.983Z,15.45
2022-09-23T02:39:25.924Z,15.43
2022-09-23T02:42:05.719Z,15.38
2022-09-23T02:44:33.297Z,15.37
2022-09-23T02:47:00.943Z,15.35
2022-09-23T02:49:31.956Z,15.29
2022-09-23T02:52:04.708Z,15.22
2022-09-23T02:54:33.700Z,15.22
2022-09-23T02:57:04.462Z,15.22
2022-09-23T02:59:34.710Z,15.22
2022-09-23T03:02:20.636Z,15.27
2022-09-23T03:05:05.626Z,15.35
2022-09-23T03:07:47.682Z,15.43
2022-09-23T03:10:25.774Z,15.49
2022-09-23T03:13:12.247Z,15.50
2022-09-23T03:15:52.096Z,15.48
2022-09-23T03:18:31.565Z,15.48
2022-09-23T03:21:07.855Z,15.56
2022-09-23T03:23:39.779Z,15.67
2022-09-23T03:26:13.695Z,15.76
2022-09-23T03:28:45.122Z,15.80
2022-09-23T03:31:14.368Z,15.87
2022-09-23T03:33:48.621Z,15.89
2022-09-23T03:36:44.356Z,15.96
2022-09-23T03:39:27.323Z,15.95
2022-09-23T03:42:00.755Z,15.96
2022-09-23T03:44:29.758Z,15.91
2022-09-23T03:47:01.189Z,15.83
2022-09-23T03:49:34.446Z,15.75
2022-09-23T03:52:03.938Z,15.69
2022-09-23T03:54:31.339Z,15.66
2022-09-23T03:57:00.260Z,15.64
2022-09-23T03:59:28.281Z,15.64
2022-09-23T04:01:55.693Z,15.66
2022-09-23T04:04:23.054Z,15.67
2022-09-23T04:06:50.302Z,15.66
2022-09-23T04:09:18.900Z,15.63
2022-09-23T04:11:46.145Z,15.60
2022-09-23T04:14:13.546Z,15.58
2022-09-23T04:16:40.865Z,15.53
2022-09-23T04:19:11.731Z,15.48
2022-09-23T04:21:40.286Z,15.43
2022-09-23T04:24:08.497Z,15.43
2022-09-23T04:26:38.356Z,15.44
2022-09-23T04:29:06.607Z,15.46
2022-09-23T04:31:34.723Z,15.47
2022-09-23T04:34:02.098Z,15.52
2022-09-23T04:36:30.366Z,15.58
2022-09-23T04:38:57.701Z,15.65
2022-09-23T04:41:24.958Z,15.72
2022-09-23T04:43:53.684Z,15.75
2022-09-23T04:46:20.992Z,15.73
2022-09-23T04:48:48.309Z,15.75
2022-09-23T04:51:19.149Z,15.71
2022-09-23T04:53:49.158Z,15.62
2022-09-23T04:56:19.856Z,15.58
2022-09-23T04:58:47.702Z,15.55
2022-09-23T05:01:19.461Z,15.51
2022-09-23T05:03:47.302Z,15.48
2022-09-23T05:06:15.308Z,15.42
2022-09-23T05:08:48.815Z,15.36
2022-09-23T05:11:17.925Z,15.34
2022-09-23T05:13:46.341Z,15.30
2022-09-23T05:16:13.807Z,15.26
2022-09-23T05:18:45.500Z,15.23
2022-09-23T05:21:16.256Z,15.23
2022-09-23T05:23:47.654Z,15.22
2022-09-23T05:26:15.699Z,15.19
2022-09-23T05:28:42.988Z,15.15
2022-09-23T05:31:19.323Z,15.12
2022-09-23T05:33:54.187Z,15.17
2022-09-23T05:36:23.148Z,15.22
2022-09-23T05:38:51.940Z,15.24
2022-09-23T05:41:25.245Z,15.23
2022-09-23T05:43:54.087Z,15.20
2022-09-23T05:46:24.826Z,15.13
2022-09-23T05:48:57.650Z,15.06
2022-09-23T05:51:31.143Z,15.00
2022-09-23T05:54:00.501Z,14.88
2022-09-23T05:56:29.035Z,14.81
2022-09-23T05:58:58.849Z,14.77
2022-09-23T06:01:28.751Z,14.80
2022-09-23T06:03:59.238Z,14.83
2022-09-23T06:06:29.979Z,14.83
2022-09-23T06:09:01.147Z,14.84
2022-09-23T06:11:31.662Z,14.83
2022-09-23T06:14:01.095Z,14.86
2022-09-23T06:16:31.308Z,14.93
2022-09-23T06:19:05.888Z,15.03
2022-09-23T06:21:36.664Z,15.06
2022-09-23T06:24:05.224Z,15.05
2022-09-23T06:26:35.459Z,15.05
2022-09-23T06:29:04.781Z,15.07
2022-09-23T06:31:33.181Z,15.11
2022-09-23T06:34:11.022Z,15.09
2022-09-23T06:36:44.557Z,15.07
2022-09-23T06:39:13.916Z,15.10
2022-09-23T06:41:41.210Z,15.16
2022-09-23T06:44:08.521Z,15.28
2022-09-23T06:46:36.851Z,15.50
2022-09-23T06:49:05.606Z,15.83
2022-09-23T06:51:33.475Z,16.24
2022-09-23T06:54:00.756Z,16.76
2022-09-23T06:56:28.022Z,17.31
2022-09-23T06:58:55.270Z,17.82
2022-09-23T07:01:23.279Z,18.21
2022-09-23T07:03:50.710Z,18.56
2022-09-23T07:06:19.963Z,18.84
2022-09-23T07:08:48.158Z,19.00
2022-09-23T07:11:16.279Z,18.93
2022-09-23T07:13:43.621Z,18.82
2022-09-23T07:16:12.078Z,18.76
2022-09-23T07:18:41.037Z,18.66
2022-09-23T07:21:11.499Z,18.64
2022-09-23T07:23:40.489Z,18.71
2022-09-23T07:26:08.655Z,18.83
2022-09-23T07:28:37.199Z,18.94
2022-09-23T07:31:07.721Z,18.99
2022-09-23T07:33:36.080Z,18.99
2022-09-23T07:36:09.160Z,18.92
2022-09-23T07:38:41.522Z,18.86
2022-09-23T07:41:16.981Z,18.82
2022-09-23T07:43:44.969Z,18.79
2022-09-23T07:46:17.567Z,18.77
2022-09-23T07:48:46.087Z,18.83
2022-09-23T07:51:18.170Z,18.81
2022-09-23T07:53:48.392Z,18.86
2022-09-23T07:56:19.349Z,18.84
2022-09-23T07:59:00.279Z,18.84
2022-09-23T08:04:26.779Z,18.91
2022-09-23T08:06:57.858Z,19.07
2022-09-23T08:09:29.018Z,19.26
2022-09-23T08:11:58.177Z,19.51
2022-09-23T08:14:26.058Z,19.91
2022-09-23T08:16:54.126Z,20.69
2022-09-23T08:19:21.635Z,21.37
2022-09-23T08:21:49.857Z,22.02
2022-09-23T08:24:20.823Z,22.61
2022-09-23T08:26:49.005Z,23.19
2022-09-23T08:29:20.954Z,23.86
2022-09-23T08:31:49.713Z,24.48
2022-09-23T08:34:18.463Z,24.88
2022-09-23T08:36:46.734Z,25.25
2022-09-23T08:39:16.338Z,25.82
2022-09-23T08:41:59.249Z,26.54
2022-09-23T08:44:43.455Z,26.75
2022-09-23T08:47:21.402Z,26.79
2022-09-23T08:50:00.486Z,26.82
2022-09-23T08:52:35.771Z,26.74
2022-09-23T08:55:29.928Z,26.99
2022-09-23T08:58:35.153Z,27.42
2022-09-23T09:01:16.383Z,27.66
2022-09-23T09:03:50.516Z,27.78
2022-09-23T09:06:28.328Z,28.03
2022-09-23T09:09:00.996Z,28.12
2022-09-23T09:11:35.950Z,28.46
2022-09-23T09:14:18.130Z,28.58
2022-09-23T09:17:00.440Z,28.48
2022-09-23T09:19:52.910Z,28.55
2022-09-23T09:22:44.678Z,28.98
2022-09-23T09:25:36.356Z,28.58
2022-09-23T09:28:14.349Z,27.89
2022-09-23T09:30:45.180Z,27.79
2022-09-23T09:33:24.102Z,28.04
2022-09-23T09:36:08.835Z,28.57
2022-09-23T09:38:36.886Z,29.05
2022-09-23T09:41:15.469Z,29.52
2022-09-23T09:43:52.408Z,29.57
2022-09-23T09:46:49.498Z,29.10
2022-09-23T09:49:38.091Z,28.71
2022-09-23T09:52:24.267Z,28.43
2022-09-23T09:54:52.595Z,28.21
2022-09-23T09:57:36.854Z,27.87
2022-09-23T10:00:41.809Z,27.31
2022-09-23T10:03:35.307Z,26.83
2022-09-23T10:06:22.563Z,26.37
2022-09-23T10:09:22.030Z,25.96
2022-09-23T10:12:13.084Z,25.72
2022-09-23T10:14:40.401Z,25.54
2022-09-23T10:17:16.934Z,25.35
2022-09-23T10:19:48.641Z,25.23
2022-09-23T10:22:30.029Z,25.20
2022-09-23T10:25:03.841Z,25.22
2022-09-23T10:27:34.698Z,25.14
2022-09-23T10:30:05.621Z,25.07
2022-09-23T10:32:37.338Z,24.98
2022-09-23T10:35:16.614Z,24.88
2022-09-23T10:37:49.971Z,24.85
2022-09-23T10:40:45.977Z,24.81
2022-09-23T10:43:53.222Z,24.56
2022-09-23T10:46:41.252Z,24.27
2022-09-23T10:49:57.424Z,24.09
2022-09-23T10:53:02.452Z,24.01
2022-09-23T10:55:52.834Z,24.01
2022-09-23T10:59:29.018Z,24.06
2022-09-23T11:02:21.618Z,24.15
2022-09-23T11:05:36.012Z,24.27
2022-09-23T11:08:33.844Z,24.31
2022-09-23T11:11:21.873Z,24.41
2022-09-23T11:14:16.991Z,24.49
2022-09-23T11:17:13.519Z,24.52
2022-09-23T11:20:17.933Z,24.53
2022-09-23T11:23:09.612Z,24.60
2022-09-23T11:25:52.006Z,24.72
2022-09-23T11:29:10.137Z,24.91
2022-09-23T11:31:59.285Z,25.09
2022-09-23T11:35:02.445Z,25.23
2022-09-23T11:37:37.153Z,25.34
2022-09-23T11:40:15.627Z,25.19
2022-09-23T11:42:55.227Z,24.99
2022-09-23T11:45:31.851Z,24.96
2022-09-23T11:48:05.737Z,24.86
2022-09-23T11:50:39.970Z,24.67
2022-09-23T11:53:18.267Z,24.62
2022-09-23T11:55:57.718Z,24.56
2022-09-23T11:58:35.117Z,24.63
2022-09-23T12:01:12.221Z,24.70
2022-09-23T12:03:50.878Z,24.66
2022-09-23T12:06:22.296Z,24.59
2022-09-23T12:08:57.722Z,24.64
2022-09-23T12:11:36.031Z,24.66
2022-09-23T12:14:17.818Z,24.61
2022-09-23T12:17:06.106Z,24.58
2022-09-23T12:20:23.077Z,24.52
2022-09-23T12:23:12.080Z,24.48
2022-09-23T12:25:46.846Z,24.42
2022-09-23T12:28:23.412Z,24.33
2022-09-23T12:30:57.430Z,24.25
2022-09-23T12:33:28.360Z,24.19
2022-09-23T12:36:04.853Z,24.14
2022-09-23T12:38:37.604Z,24.13
2022-09-23T12:41:27.098Z,24.08
2022-09-23T12:44:15.059Z,24.01
2022-09-23T12:46:45.865Z,24.05
2022-09-23T12:49:28.193Z,24.04
2022-09-23T12:52:25.793Z,23.94
2022-09-23T12:54:58.175Z,23.90
2022-09-23T12:57:41.905Z,23.86
2022-09-23T13:00:24.214Z,23.88
2022-09-23T13:03:18.512Z,23.92
2022-09-23T13:06:10.441Z,23.96
2022-09-23T13:08:40.411Z,23.89
2022-09-23T13:11:21.969Z,23.91
2022-09-23T13:13:51.508Z,23.97
2022-09-23T13:16:26.526Z,24.07
2022-09-23T13:18:57.708Z,24.10
2022-09-23T13:22:01.831Z,23.98
2022-09-23T13:24:40.745Z,24.08
2022-09-23T13:27:21.954Z,24.07
2022-09-23T13:29:58.406Z,24.11
2022-09-23T13:32:31.749Z,24.12
2022-09-23T13:35:05.425Z,24.11
2022-09-23T13:37:46.171Z,23.97
2022-09-23T13:40:24.144Z,23.97
2022-09-23T13:42:58.519Z,24.02
2022-09-23T13:45:28.258Z,24.04
2022-09-23T13:48:03.346Z,23.96
2022-09-23T13:50:35.228Z,23.96
2022-09-23T13:53:11.423Z,23.93
2022-09-23T13:55:41.031Z,23.91
2022-09-23T13:58:18.835Z,23.84
2022-09-23T14:00:47.477Z,23.77
2022-09-23T14:03:37.098Z,23.62
2022-09-23T14:06:11.264Z,23.52
2022-09-23T14:08:43.982Z,23.45
2022-09-23T14:11:16.260Z,23.37
2022-09-23T14:13:46.511Z,23.28
2022-09-23T14:16:16.258Z,23.21
2022-09-23T14:18:47.060Z,23.21
2022-09-23T14:21:34.708Z,23.09
2022-09-23T14:24:17.776Z,23.01
2022-09-23T14:26:48.442Z,23.07
2022-09-23T14:29:19.252Z,23.09
2022-09-23T14:31:57.157Z,23.06
2022-09-23T14:34:46.964Z,23.00
2022-09-23T14:37:47.518Z,23.00
2022-09-23T14:40:18.734Z,23.00
2022-09-23T14:42:49.911Z,23.05
2022-09-23T14:45:21.180Z,23.07
2022-09-23T14:47:53.726Z,23.02
2022-09-23T14:50:37.812Z,22.96
2022-09-23T14:53:35.361Z,22.86
2022-09-23T14:56:16.782Z,22.89
2022-09-23T14:58:53.808Z,22.92
2022-09-23T15:01:35.685Z,22.89
2022-09-23T15:04:17.373Z,22.87
2022-09-23T15:06:53.659Z,22.84
2022-09-23T15:09:26.649Z,22.81
2022-09-23T15:11:59.860Z,22.70
2022-09-23T15:14:38.194Z,22.74
2022-09-23T15:17:30.483Z,22.78
2022-09-23T15:20:02.448Z,22.88
2022-09-23T15:22:30.009Z,22.94
2022-09-23T15:25:18.385Z,22.94
2022-09-23T15:27:58.525Z,22.96
2022-09-23T15:30:26.580Z,22.99
2022-09-23T15:32:54.249Z,23.01
2022-09-23T15:35:27.437Z,23.05
2022-09-23T15:37:58.833Z,23.01
2022-09-23T15:40:31.115Z,22.92
2022-09-23T15:43:01.279Z,22.78
2022-09-23T15:45:33.374Z,22.61
2022-09-23T15:48:08.451Z,22.46
2022-09-23T15:50:37.180Z,22.40
2022-09-23T15:53:06.713Z,22.38
2022-09-23T15:55:35.381Z,22.40
2022-09-23T15:58:02.673Z,22.42
2022-09-23T16:00:30.077Z,22.45
2022-09-23T16:02:57.313Z,22.47
2022-09-23T16:05:34.840Z,22.46
2022-09-23T16:08:08.494Z,22.47
2022-09-23T16:10:38.924Z,22.45
2022-09-23T16:13:11.603Z,22.45
2022-09-23T16:15:39.899Z,22.47
2022-09-23T16:18:08.567Z,22.47
2022-09-23T16:20:38.496Z,22.48
2022-09-23T16:23:10.899Z,22.46
2022-09-23T16:25:40.002Z,22.46
2022-09-23T16:28:07.286Z,22.44
2022-09-23T16:30:35.145Z,22.41
2022-09-23T16:33:02.489Z,22.41
2022-09-23T16:35:33.638Z,22.41
2022-09-23T16:38:00.954Z,22.38
2022-09-23T16:40:28.357Z,22.34
2022-09-23T16:42:58.399Z,22.31
2022-09-23T16:45:25.784Z,22.29
2022-09-23T16:47:54.266Z,22.24
2022-09-23T16:50:24.014Z,22.20
2022-09-23T16:52:56.049Z,22.16
2022-09-23T16:55:25.748Z,22.13
2022-09-23T16:57:53.963Z,22.08
2022-09-23T17:00:42.461Z,22.04
2022-09-23T17:03:31.724Z,22.00
2022-09-23T17:06:00.702Z,21.96
2022-09-23T17:08:30.115Z,21.93
2022-09-23T17:10:59.612Z,21.92
2022-09-23T17:13:28.416Z,21.89
2022-09-23T17:15:57.187Z,21.89
2022-09-23T17:18:25.236Z,21.87
2022-09-23T17:21:01.108Z,21.84
2022-09-23T17:23:31.429Z,21.83
2022-09-23T17:25:58.990Z,21.81
2022-09-23T17:28:26.331Z,21.79
2022-09-23T17:30:58.872Z,21.77
2022-09-23T17:33:28.155Z,21.76
2022-09-23T17:35:56.872Z,21.73
2022-09-23T17:38:28.870Z,21.70
2022-09-23T17:41:02.011Z,21.66
2022-09-23T17:43:30.163Z,21.65
2022-09-23T17:46:06.302Z,21.65
2022-09-23T17:48:36.172Z,21.65
2022-09-23T17:51:06.643Z,21.64
2022-09-23T17:53:36.957Z,21.64
2022-09-23T17:56:06.809Z,21.62
2022-09-23T17:58:37.382Z,21.63
2022-09-23T18:01:10.878Z,21.61
2022-09-23T18:03:39.457Z,21.61
2022-09-23T18:06:09.480Z,21.59
2022-09-23T18:08:37.624Z,21.58
2022-09-23T18:11:13.356Z,21.53
2022-09-23T18:13:40.885Z,21.52
2022-09-23T18:16:09.759Z,21.49
2022-09-23T18:18:37.108Z,21.46
2022-09-23T18:21:06.728Z,21.42
2022-09-23T18:23:34.045Z,21.42
2022-09-23T18:26:01.290Z,21.41
2022-09-23T18:28:34.015Z,21.42
2022-09-23T18:31:02.120Z,21.39
2022-09-23T18:33:30.758Z,21.36
2022-09-23T18:36:01.134Z,21.33
2022-09-23T18:38:28.431Z,21.30
2022-09-23T18:40:58.025Z,21.30
2022-09-23T18:43:29.534Z,21.28
2022-09-23T18:46:02.468Z,21.25
2022-09-23T18:48:53.083Z,21.22
2022-09-23T18:51:25.383Z,21.18
2022-09-23T18:53:57.572Z,21.18
2022-09-23T18:56:27.835Z,21.18
2022-09-23T18:58:56.049Z,21.18
2022-09-23T19:01:25.018Z,21.18
2022-09-23T19:03:57.523Z,21.17
2022-09-23T19:06:26.111Z,21.20
2022-09-23T19:08:55.562Z,21.19
2022-09-23T19:11:24.224Z,21.19
2022-09-23T19:13:56.345Z,21.17
2022-09-23T19:16:25.060Z,21.15
2022-09-23T19:18:52.762Z,21.15
2022-09-23T19:21:23.072Z,21.13
2022-09-23T19:23:53.130Z,21.08
2022-09-23T19:26:24.694Z,21.03
2022-09-23T19:28:54.881Z,21.03
2022-09-23T19:31:26.357Z,21.00
2022-09-23T19:33:56.673Z,20.98
2022-09-23T19:36:28.336Z,20.95
2022-09-23T19:38:58.123Z,20.93
2022-09-23T19:41:28.161Z,20.90
2022-09-23T19:43:58.639Z,20.88
2022-09-23T19:46:25.984Z,20.87
2022-09-23T19:48:53.307Z,20.85
2022-09-23T19:51:20.561Z,20.83
2022-09-23T19:53:49.421Z,20.82
2022-09-23T19:56:17.948Z,20.80
2022-09-23T19:58:47.260Z,20.79
2022-09-23T20:01:15.181Z,20.77
2022-09-23T20:03:42.939Z,20.75
2022-09-23T20:06:10.444Z,20.74
2022-09-23T20:08:38.231Z,20.73
2022-09-23T20:11:12.505Z,20.68
2022-09-23T20:13:41.274Z,20.66
2022-09-23T20:16:12.098Z,20.64
2022-09-23T20:18:39.919Z,20.62
2022-09-23T20:21:10.722Z,20.65
2022-09-23T20:23:38.103Z,20.64
2022-09-23T20:26:25.644Z,20.65
2022-09-23T20:28:54.715Z,20.63
2022-09-23T20:31:23.788Z,20.64
2022-09-23T20:33:53.649Z,20.66
2022-09-23T20:36:21.465Z,20.66
2022-09-23T20:38:53.321Z,20.66
2022-09-23T20:41:21.196Z,20.68
2022-09-23T20:43:51.817Z,20.70
2022-09-23T20:46:23.439Z,20.72
2022-09-23T20:48:50.895Z,20.71
2022-09-23T20:51:18.267Z,20.69
2022-09-23T20:53:48.352Z,20.71
2022-09-23T20:56:16.484Z,20.72
2022-09-23T20:58:44.543Z,20.71
2022-09-23T21:01:12.290Z,20.71
2022-09-23T21:03:43.719Z,20.71
2022-09-23T21:06:14.243Z,20.72
2022-09-23T21:08:44.372Z,20.73
2022-09-23T21:11:14.922Z,20.76
2022-09-23T21:13:47.102Z,20.80
2022-09-23T21:16:17.066Z,20.82
2022-09-23T21:18:46.776Z,20.82
2022-09-23T21:21:15.104Z,20.83
2022-09-23T21:23:43.868Z,20.84
2022-09-23T21:26:13.687Z,20.85
2022-09-23T21:28:42.929Z,20.85
2022-09-23T21:31:13.342Z,20.86
2022-09-23T21:33:40.691Z,20.86
2022-09-23T21:36:10.116Z,20.85
2022-09-23T21:38:38.282Z,20.83
2022-09-23T21:41:10.004Z,20.80
2022-09-23T21:43:40.072Z,20.79
2022-09-23T21:46:10.690Z,20.78
2022-09-23T21:48:43.028Z,20.79
2022-09-23T21:51:14.403Z,20.78
2022-09-23T21:53:43.998Z,20.76
2022-09-23T21:56:20.258Z,20.73
2022-09-23T21:58:48.849Z,20.70
2022-09-23T22:01:19.308Z,20.70
2022-09-23T22:03:51.344Z,20.67
2022-09-23T22:06:22.094Z,20.66
2022-09-23T22:08:53.159Z,20.64
2022-09-23T22:11:41.986Z,20.61
2022-09-23T22:14:12.644Z,20.59
2022-09-23T22:16:41.548Z,20.58
2022-09-23T22:19:11.191Z,20.55
2022-09-23T22:21:42.796Z,20.53
2022-09-23T22:24:12.479Z,20.49
2022-09-23T22:26:42.621Z,20.42
2022-09-23T22:29:31.921Z,20.36
2022-09-23T22:32:18.400Z,20.27
2022-09-23T22:34:52.593Z,20.20
2022-09-23T22:37:25.849Z,20.14
2022-09-23T22:39:53.721Z,20.09
2022-09-23T22:42:22.239Z,20.05
2022-09-23T22:44:50.261Z,20.01
2022-09-23T22:47:19.205Z,19.98
2022-09-23T22:49:46.654Z,19.96
2022-09-23T22:52:16.077Z,19.96
2022-09-23T22:54:44.842Z,19.95
2022-09-23T22:57:12.098Z,19.93
2022-09-23T22:59:39.382Z,19.90
2022-09-23T23:02:08.155Z,19.84
2022-09-23T23:04:36.529Z,19.74
2022-09-23T23:07:04.278Z,19.67
2022-09-23T23:09:31.554Z,19.56
2022-09-23T23:12:00.344Z,19.46
2022-09-23T23:14:28.036Z,19.42
2022-09-23T23:16:55.543Z,19.44
2022-09-23T23:19:23.582Z,19.48
2022-09-23T23:21:51.414Z,19.53
2022-09-23T23:24:21.781Z,19.57
2022-09-23T23:26:49.877Z,19.58
2022-09-23T23:29:21.652Z,19.59
2022-09-23T23:31:49.469Z,19.63
2022-09-23T23:34:19.777Z,19.60
2022-09-23T23:36:54.605Z,19.57
2022-09-23T23:39:23.945Z,19.56
2022-09-23T23:41:53.290Z,19.55
2022-09-23T23:44:23.850Z,19.55
2022-09-23T23:46:52.311Z,19.58
2022-09-23T23:49:20.235Z,19.59
2022-09-23T23:51:48.014Z,19.61
2022-09-23T23:54:16.783Z,19.62
2022-09-23T23:56:44.629Z,19.62
2022-09-23T23:59:12.266Z,19.62
